createdAt,value
2022-10-05T00:00:13.773Z,79.55
2022-10-05T00:03:09.594Z,79.33
2022-10-05T00:05:36.100Z,79.08
2022-10-05T00:08:22.114Z,79.47
2022-10-05T00:10:50.801Z,79.73
2022-10-05T00:13:23.676Z,79.54
2022-10-05T00:15:57.584Z,79.77
2022-10-05T00:18:23.991Z,79.53
2022-10-05T00:20:50.348Z,79.33
2022-10-05T00:23:29.199Z,79.22
2022-10-05T00:26:10.760Z,79.27
2022-10-05T00:28:37.306Z,79.74
2022-10-05T00:31:14.795Z,79.69
2022-10-05T00:33:41.227Z,79.68
2022-10-05T00:36:07.898Z,79.55
2022-10-05T00:38:34.489Z,79.75
2022-10-05T00:41:22.927Z,79.70
2022-10-05T00:44:16.787Z,79.52
2022-10-05T00:46:53.689Z,79.27
2022-10-05T00:49:43.118Z,79.55
2022-10-05T00:52:59.366Z,79.47
2022-10-05T00:55:45.728Z,79.53
2022-10-05T00:58:27.311Z,79.38
2022-10-05T01:01:14.600Z,79.59
2022-10-05T01:04:15.499Z,79.32
2022-10-05T01:06:55.803Z,79.58
2022-10-05T01:09:47.203Z,79.54
2022-10-05T01:12:41.135Z,79.72
2022-10-05T01:15:26.629Z,79.23
2022-10-05T01:18:17.313Z,80.11
2022-10-05T01:21:05.466Z,79.96
2022-10-05T01:23:53.816Z,80.18
2022-10-05T01:26:57.735Z,80.23
2022-10-05T01:29:43.178Z,80.30
2022-10-05T01:32:31.073Z,80.26
2022-10-05T01:35:07.962Z,79.98
2022-10-05T01:37:58.237Z,80.59
2022-10-05T01:40:36.236Z,80.97
2022-10-05T01:43:18.275Z,80.60
2022-10-05T01:45:59.932Z,80.64
2022-10-05T01:48:38.689Z,80.70
2022-10-05T01:51:27.200Z,80.88
2022-10-05T01:54:17.517Z,80.40
2022-10-05T01:57:11.852Z,80.60
2022-10-05T02:00:07.163Z,80.77
2022-10-05T02:03:07.744Z,80.62
2022-10-05T02:05:51.064Z,81.00
2022-10-05T02:08:26.340Z,80.94
2022-10-05T02:11:05.560Z,81.09
2022-10-05T02:13:44.913Z,81.26
2022-10-05T02:16:24.118Z,81.09
2022-10-05T02:19:02.933Z,81.34
2022-10-05T02:21:33.591Z,81.14
2022-10-05T02:24:08.107Z,81.31
2022-10-05T02:26:36.058Z,81.21
2022-10-05T02:29:08.924Z,81.05
2022-10-05T02:31:42.750Z,81.20
2022-10-05T02:34:29.934Z,81.55
2022-10-05T02:37:25.472Z,81.38
2022-10-05T02:40:14.471Z,81.52
2022-10-05T02:42:59.457Z,81.25
2022-10-05T02:45:48.073Z,81.38
2022-10-05T02:48:21.948Z,81.46
2022-10-05T02:50:57.613Z,81.76
2022-10-05T02:53:41.786Z,81.83
2022-10-05T02:56:32.800Z,81.62
2022-10-05T02:59:05.262Z,81.94
2022-10-05T03:01:40.065Z,81.88
2022-10-05T03:04:42.317Z,82.13
2022-10-05T03:07:17.185Z,81.67
2022-10-05T03:10:01.415Z,81.51
2022-10-05T03:12:57.605Z,81.82
2022-10-05T03:16:03.086Z,81.64
2022-10-05T03:18:54.414Z,81.84
2022-10-05T03:21:52.525Z,81.69
2022-10-05T03:24:32.226Z,81.35
2022-10-05T03:27:05.453Z,81.68
2022-10-05T03:29:53.736Z,81.78
2022-10-05T03:32:25.327Z,81.82
2022-10-05T03:34:56.097Z,81.68
2022-10-05T03:37:30.224Z,82.04
2022-10-05T03:40:15.463Z,82.03
2022-10-05T03:43:16.533Z,81.94
2022-10-05T03:46:13.726Z,81.57
2022-10-05T03:48:52.180Z,81.69
2022-10-05T03:51:32.470Z,81.87
2022-10-05T03:54:09.573Z,82.17
2022-10-05T03:56:41.230Z,81.71
2022-10-05T03:59:16.233Z,82.01
2022-10-05T04:01:51.497Z,81.90
2022-10-05T04:04:25.845Z,82.00
2022-10-05T04:06:54.513Z,81.98
2022-10-05T04:09:27.472Z,81.79
2022-10-05T04:12:29.444Z,82.34
2022-10-05T04:15:08.473Z,82.11
2022-10-05T04:17:54.004Z,82.50
2022-10-05T04:20:43.844Z,82.34
2022-10-05T04:23:14.206Z,82.32
2022-10-05T04:26:03.705Z,82.50
2022-10-05T04:28:56.540Z,82.75
2022-10-05T04:31:51.705Z,82.67
2022-10-05T04:34:42.120Z,82.86
2022-10-05T04:37:19.546Z,83.03
2022-10-05T04:40:05.568Z,82.82
2022-10-05T04:43:06.823Z,82.85
2022-10-05T04:45:55.884Z,83.40
2022-10-05T04:48:45.535Z,83.12
2022-10-05T04:51:18.561Z,83.26
2022-10-05T04:54:08.080Z,83.33
2022-10-05T04:56:40.208Z,83.14
2022-10-05T04:59:26.860Z,83.41
2022-10-05T05:02:31.641Z,83.85
2022-10-05T05:05:22.984Z,83.49
2022-10-05T05:08:19.649Z,84.06
2022-10-05T05:10:52.349Z,83.71
2022-10-05T05:13:28.126Z,83.77
2022-10-05T05:16:24.344Z,83.84
2022-10-05T05:19:18.860Z,83.98
2022-10-05T05:22:03.739Z,84.36
2022-10-05T05:25:16.647Z,84.66
2022-10-05T05:28:19.292Z,84.30
2022-10-05T05:30:56.225Z,84.49
2022-10-05T05:33:40.586Z,84.15
2022-10-05T05:36:26.016Z,84.85
2022-10-05T05:39:26.313Z,84.84
2022-10-05T05:42:17.280Z,84.44
2022-10-05T05:44:59.620Z,84.86
2022-10-05T05:47:39.571Z,84.47
2022-10-05T05:50:37.537Z,84.83
2022-10-05T05:53:16.241Z,84.90
2022-10-05T05:55:52.436Z,84.45
2022-10-05T05:58:26.782Z,84.56
2022-10-05T06:01:03.805Z,84.69
2022-10-05T06:03:39.112Z,84.96
2022-10-05T06:06:16.455Z,84.63
2022-10-05T06:09:04.311Z,84.92
2022-10-05T06:11:46.901Z,84.71
2022-10-05T06:14:22.489Z,84.46
2022-10-05T06:17:05.000Z,84.58
2022-10-05T06:19:33.988Z,84.78
2022-10-05T06:22:14.459Z,84.98
2022-10-05T06:25:07.358Z,84.72
2022-10-05T06:27:38.186Z,84.68
2022-10-05T06:30:17.080Z,84.67
2022-10-05T06:32:50.178Z,84.69
2022-10-05T06:35:44.635Z,84.69
2022-10-05T06:38:14.177Z,84.67
2022-10-05T06:41:14.873Z,84.72
2022-10-05T06:44:09.163Z,84.81
2022-10-05T06:46:51.956Z,84.95
2022-10-05T06:49:57.605Z,84.64
2022-10-05T06:52:59.838Z,84.64
2022-10-05T06:55:33.905Z,84.89
2022-10-05T06:58:16.048Z,84.97
2022-10-05T07:01:02.622Z,84.97
2022-10-05T07:03:44.595Z,84.54
2022-10-05T07:06:22.715Z,84.70
2022-10-05T07:09:26.875Z,84.39
2022-10-05T07:12:02.401Z,84.36
2022-10-05T07:14:50.009Z,84.26
2022-10-05T07:17:28.419Z,84.33
2022-10-05T07:20:30.966Z,84.32
2022-10-05T07:23:02.867Z,84.29
2022-10-05T07:26:17.077Z,84.16
2022-10-05T07:28:57.429Z,83.63
2022-10-05T07:31:45.077Z,83.49
2022-10-05T07:34:36.457Z,83.54
2022-10-05T07:37:33.831Z,83.51
2022-10-05T07:40:18.817Z,83.30
2022-10-05T07:43:04.356Z,83.50
2022-10-05T07:45:51.945Z,83.18
2022-10-05T07:48:21.937Z,83.01
2022-10-05T07:50:59.419Z,82.98
2022-10-05T07:53:37.252Z,82.80
2022-10-05T07:56:36.545Z,82.54
2022-10-05T07:59:14.533Z,82.30
2022-10-05T08:01:47.852Z,82.31
2022-10-05T08:04:27.272Z,81.69
2022-10-05T08:07:10.988Z,82.00
2022-10-05T08:09:48.548Z,81.78
2022-10-05T08:12:33.634Z,81.75
2022-10-05T08:15:17.326Z,81.69
2022-10-05T08:17:52.244Z,81.44
2022-10-05T08:20:32.330Z,80.92
2022-10-05T08:23:35.399Z,80.87
2022-10-05T08:26:13.761Z,80.99
2022-10-05T08:28:59.752Z,80.72
2022-10-05T08:31:33.051Z,80.68
2022-10-05T08:34:25.650Z,79.43
2022-10-05T08:37:03.320Z,79.39
2022-10-05T08:39:35.836Z,79.79
2022-10-05T08:42:40.412Z,79.39
2022-10-05T08:45:30.088Z,79.53
2022-10-05T08:48:22.324Z,79.53
2022-10-05T08:51:20.452Z,79.43
2022-10-05T08:54:11.461Z,79.40
2022-10-05T08:57:02.601Z,78.79
2022-10-05T08:59:31.629Z,78.18
2022-10-05T09:02:13.419Z,78.28
2022-10-05T09:05:05.384Z,77.60
2022-10-05T09:07:53.544Z,77.50
2022-10-05T09:10:31.757Z,77.01
2022-10-05T09:13:26.822Z,76.07
2022-10-05T09:16:27.615Z,74.79
2022-10-05T09:19:32.084Z,74.97
2022-10-05T09:22:37.694Z,74.99
2022-10-05T09:25:42.053Z,75.05
2022-10-05T09:28:50.149Z,74.51
2022-10-05T09:32:04.801Z,74.26
2022-10-05T09:35:04.658Z,74.44
2022-10-05T09:38:02.442Z,74.59
2022-10-05T09:40:51.097Z,74.63
2022-10-05T09:43:45.481Z,74.10
2022-10-05T09:46:11.965Z,74.11
2022-10-05T09:48:55.962Z,74.12
2022-10-05T09:51:51.617Z,73.83
2022-10-05T09:54:37.389Z,73.88
2022-10-05T09:57:17.617Z,73.35
2022-10-05T10:00:29.173Z,73.67
2022-10-05T10:03:28.336Z,73.28
2022-10-05T10:06:13.169Z,72.88
2022-10-05T10:09:05.865Z,73.41
2022-10-05T10:12:17.961Z,72.17
2022-10-05T10:15:18.346Z,72.08
2022-10-05T10:18:06.394Z,71.65
2022-10-05T10:20:38.020Z,71.81
2022-10-05T10:23:30.089Z,71.45
2022-10-05T10:25:56.473Z,71.15
2022-10-05T10:28:44.704Z,71.06
2022-10-05T10:31:36.734Z,70.16
2022-10-05T10:34:29.056Z,70.13
2022-10-05T10:37:23.391Z,70.35
2022-10-05T10:40:06.604Z,70.47
2022-10-05T10:42:47.150Z,70.40
2022-10-05T10:45:40.873Z,69.76
2022-10-05T10:48:30.867Z,69.90
2022-10-05T10:51:11.913Z,69.62
2022-10-05T10:54:11.936Z,69.81
2022-10-05T10:56:53.450Z,68.94
2022-10-05T10:59:42.196Z,69.19
2022-10-05T11:02:27.587Z,68.67
2022-10-05T11:05:29.076Z,68.94
2022-10-05T11:08:33.597Z,68.92
2022-10-05T11:11:30.457Z,68.19
2022-10-05T11:14:20.415Z,68.41
2022-10-05T11:17:05.725Z,68.87
2022-10-05T11:20:06.168Z,68.76
2022-10-05T11:22:58.526Z,67.21
2022-10-05T11:25:47.907Z,67.48
2022-10-05T11:28:40.162Z,67.39
2022-10-05T11:31:26.140Z,67.48
2022-10-05T11:34:11.480Z,66.80
2022-10-05T11:36:49.762Z,66.95
2022-10-05T11:39:38.749Z,67.36
2022-10-05T11:42:42.657Z,66.86
2022-10-05T11:45:21.152Z,66.76
2022-10-05T11:48:00.129Z,67.20
2022-10-05T11:50:56.589Z,67.38
2022-10-05T11:53:34.383Z,68.12
2022-10-05T11:56:05.582Z,67.45
2022-10-05T11:58:40.621Z,67.40
2022-10-05T12:01:34.148Z,67.20
2022-10-05T12:04:29.933Z,67.13
2022-10-05T12:07:36.780Z,67.61
2022-10-05T12:10:32.088Z,67.15
2022-10-05T12:13:04.311Z,67.39
2022-10-05T12:15:49.838Z,67.07
2022-10-05T12:18:43.141Z,66.90
2022-10-05T12:21:19.870Z,66.71
2022-10-05T12:23:53.254Z,66.54
2022-10-05T12:26:29.543Z,66.71
2022-10-05T12:29:15.445Z,66.85
2022-10-05T12:32:08.118Z,67.07
2022-10-05T12:34:56.522Z,66.72
2022-10-05T12:37:47.428Z,66.94
2022-10-05T12:40:20.286Z,66.69
2022-10-05T12:42:57.132Z,66.65
2022-10-05T12:45:52.621Z,66.22
2022-10-05T12:48:28.810Z,66.19
2022-10-05T12:51:24.627Z,66.08
2022-10-05T12:53:53.917Z,66.55
2022-10-05T12:56:44.085Z,66.40
2022-10-05T12:59:26.748Z,66.87
2022-10-05T13:01:53.210Z,66.74
2022-10-05T13:04:34.397Z,66.68
2022-10-05T13:07:27.897Z,66.53
2022-10-05T13:10:22.058Z,66.56
2022-10-05T13:13:32.295Z,66.41
2022-10-05T13:16:06.918Z,66.15
2022-10-05T13:18:58.478Z,66.30
2022-10-05T13:21:49.303Z,66.37
2022-10-05T13:24:30.189Z,66.39
2022-10-05T13:27:07.829Z,66.53
2022-10-05T13:30:01.574Z,66.66
2022-10-05T13:32:36.567Z,66.74
2022-10-05T13:35:16.235Z,67.11
2022-10-05T13:38:05.683Z,67.16
2022-10-05T13:40:44.584Z,67.65
2022-10-05T13:43:22.979Z,67.48
2022-10-05T13:46:00.814Z,67.25
2022-10-05T13:48:55.219Z,67.44
2022-10-05T13:51:57.192Z,67.32
2022-10-05T13:54:37.380Z,67.26
2022-10-05T13:57:29.449Z,67.19
2022-10-05T14:00:12.850Z,67.23
2022-10-05T14:02:45.661Z,67.27
2022-10-05T14:05:21.807Z,67.44
2022-10-05T14:08:01.373Z,67.50
2022-10-05T14:10:47.078Z,67.76
2022-10-05T14:13:30.985Z,67.72
2022-10-05T14:16:24.845Z,67.66
2022-10-05T14:18:54.640Z,67.83
2022-10-05T14:21:32.536Z,67.92
2022-10-05T14:24:45.164Z,68.06
2022-10-05T14:27:21.457Z,68.35
2022-10-05T14:30:13.677Z,68.33
2022-10-05T14:33:03.409Z,68.42
2022-10-05T14:35:54.165Z,68.51
2022-10-05T14:38:32.266Z,68.43
2022-10-05T14:41:18.742Z,68.16
2022-10-05T14:44:04.722Z,68.30
2022-10-05T14:46:32.500Z,68.38
2022-10-05T14:49:21.637Z,68.30
2022-10-05T14:51:52.915Z,68.64
2022-10-05T14:54:26.834Z,68.47
2022-10-05T14:57:12.036Z,68.59
2022-10-05T15:00:00.204Z,68.57
2022-10-05T15:02:48.869Z,68.71
2022-10-05T15:05:36.038Z,69.06
2022-10-05T15:08:11.664Z,69.41
2022-10-05T15:10:49.458Z,69.20
2022-10-05T15:13:20.687Z,69.37
2022-10-05T15:15:54.154Z,69.48
2022-10-05T15:18:44.137Z,69.57
2022-10-05T15:21:25.948Z,69.58
2022-10-05T15:24:08.738Z,69.69
2022-10-05T15:26:47.113Z,69.93
2022-10-05T15:29:32.392Z,69.97
2022-10-05T15:32:28.981Z,69.71
2022-10-05T15:35:35.556Z,69.81
2022-10-05T15:38:02.015Z,70.17
2022-10-05T15:40:58.286Z,70.20
2022-10-05T15:43:30.687Z,70.41
2022-10-05T15:46:17.631Z,70.25
2022-10-05T15:48:58.421Z,70.69
2022-10-05T15:51:55.063Z,70.73
2022-10-05T15:54:50.539Z,70.88
2022-10-05T15:57:25.525Z,70.86
2022-10-05T16:00:29.588Z,71.23
2022-10-05T16:03:32.452Z,71.42
2022-10-05T16:06:58.365Z,71.77
2022-10-05T16:09:44.315Z,71.57
2022-10-05T16:12:29.493Z,71.80
2022-10-05T16:15:28.088Z,72.53
2022-10-05T16:18:17.923Z,72.32
2022-10-05T16:20:56.365Z,72.63
2022-10-05T16:23:44.858Z,73.01
2022-10-05T16:26:45.679Z,73.01
2022-10-05T16:29:34.895Z,73.35
2022-10-05T16:32:21.898Z,73.55
2022-10-05T16:35:04.745Z,74.00
2022-10-05T16:37:48.299Z,73.87
2022-10-05T16:40:18.624Z,74.23
2022-10-05T16:43:03.488Z,74.51
2022-10-05T16:46:12.288Z,74.53
2022-10-05T16:48:44.399Z,74.58
2022-10-05T16:51:29.757Z,74.61
2022-10-05T16:54:20.439Z,74.91
2022-10-05T16:57:05.791Z,75.30
2022-10-05T17:00:05.978Z,75.56
2022-10-05T17:02:45.787Z,75.36
2022-10-05T17:05:44.607Z,75.51
2022-10-05T17:08:32.864Z,75.90
2022-10-05T17:11:21.735Z,75.97
2022-10-05T17:14:30.656Z,76.08
2022-10-05T17:17:19.328Z,76.05
2022-10-05T17:20:24.403Z,76.54
2022-10-05T17:23:01.614Z,76.58
2022-10-05T17:25:47.069Z,76.39
2022-10-05T17:28:41.136Z,76.71
2022-10-05T17:31:27.897Z,76.73
2022-10-05T17:34:15.970Z,76.86
2022-10-05T17:36:57.108Z,76.92
2022-10-05T17:39:50.454Z,77.24
2022-10-05T17:42:44.705Z,77.04
2022-10-05T17:45:14.224Z,77.85
2022-10-05T17:48:03.673Z,77.50
2022-10-05T17:51:01.603Z,77.88
2022-10-05T17:54:02.062Z,77.83
2022-10-05T17:56:53.767Z,77.58
2022-10-05T17:59:55.087Z,77.95
2022-10-05T18:02:40.026Z,78.12
2022-10-05T18:05:13.918Z,78.00
2022-10-05T18:07:48.228Z,77.82
2022-10-05T18:10:28.219Z,78.11
2022-10-05T18:12:58.065Z,78.16
2022-10-05T18:15:24.374Z,78.21
2022-10-05T18:17:56.792Z,78.61
2022-10-05T18:20:23.349Z,78.70
2022-10-05T18:22:52.946Z,78.39
2022-10-05T18:25:32.413Z,78.23
2022-10-05T18:28:11.198Z,78.44
2022-10-05T18:30:54.360Z,78.64
2022-10-05T18:33:58.964Z,78.89
2022-10-05T18:37:01.311Z,78.74
2022-10-05T18:39:35.247Z,79.05
2022-10-05T18:42:06.576Z,79.35
2022-10-05T18:44:56.939Z,79.40
2022-10-05T18:47:38.532Z,79.08
2022-10-05T18:50:38.807Z,79.19
2022-10-05T18:53:38.663Z,79.30
2022-10-05T18:56:25.394Z,79.60
2022-10-05T18:59:02.738Z,79.48
2022-10-05T19:01:55.403Z,79.16
2022-10-05T19:04:33.725Z,79.91
2022-10-05T19:07:20.451Z,79.63
2022-10-05T19:10:15.451Z,79.38
2022-10-05T19:13:05.773Z,79.20
2022-10-05T19:15:43.729Z,79.99
2022-10-05T19:18:24.273Z,80.18
2022-10-05T19:21:17.044Z,79.93
2022-10-05T19:24:09.347Z,80.42
2022-10-05T19:26:56.073Z,80.39
2022-10-05T19:30:03.092Z,80.70
2022-10-05T19:32:54.735Z,80.28
2022-10-05T19:36:00.358Z,79.95
2022-10-05T19:38:39.501Z,80.59
2022-10-05T19:41:20.642Z,80.62
2022-10-05T19:44:18.583Z,80.75
2022-10-05T19:46:58.012Z,80.58
2022-10-05T19:49:42.971Z,81.12
2022-10-05T19:52:21.815Z,80.65
2022-10-05T19:55:04.095Z,81.02
2022-10-05T19:57:31.246Z,81.27
2022-10-05T19:59:59.337Z,81.22
2022-10-05T20:02:27.418Z,81.03
2022-10-05T20:05:05.848Z,81.15
2022-10-05T20:07:33.847Z,81.27
2022-10-05T20:10:30.134Z,81.09
2022-10-05T20:12:59.619Z,81.21
2022-10-05T20:15:48.378Z,81.05
2022-10-05T20:19:02.778Z,81.38
2022-10-05T20:21:46.766Z,81.25
2022-10-05T20:24:16.787Z,81.08
2022-10-05T20:27:15.775Z,81.39
2022-10-05T20:29:44.770Z,81.27
2022-10-05T20:32:17.145Z,81.03
2022-10-05T20:34:46.736Z,81.12
2022-10-05T20:37:16.108Z,81.26
2022-10-05T20:39:43.287Z,81.37
2022-10-05T20:42:14.971Z,81.27
2022-10-05T20:44:42.206Z,80.96
2022-10-05T20:47:09.696Z,81.44
2022-10-05T20:49:40.474Z,81.25
2022-10-05T20:52:28.055Z,80.99
2022-10-05T20:54:58.273Z,81.06
2022-10-05T20:57:26.036Z,81.35
2022-10-05T20:59:53.039Z,81.43
2022-10-05T21:02:26.201Z,81.28
2022-10-05T21:04:52.860Z,81.10
2022-10-05T21:07:21.198Z,81.02
2022-10-05T21:09:48.518Z,80.87
2022-10-05T21:12:15.996Z,81.26
2022-10-05T21:14:42.893Z,81.31
2022-10-05T21:17:13.003Z,81.58
2022-10-05T21:19:39.713Z,81.51
2022-10-05T21:22:07.919Z,81.64
2022-10-05T21:24:36.371Z,81.61
2022-10-05T21:27:08.210Z,81.83
2022-10-05T21:29:36.535Z,81.52
2022-10-05T21:32:07.881Z,81.72
2022-10-05T21:34:34.640Z,81.74
2022-10-05T21:37:01.238Z,81.58
2022-10-05T21:39:27.693Z,81.98
2022-10-05T21:41:54.633Z,81.52
2022-10-05T21:44:21.567Z,81.61
2022-10-05T21:46:48.970Z,81.78
2022-10-05T21:49:18.898Z,81.80
2022-10-05T21:51:47.055Z,81.49
2022-10-05T21:54:18.945Z,81.47
2022-10-05T21:56:50.920Z,81.57
2022-10-05T21:59:26.033Z,81.60
2022-10-05T22:01:52.536Z,81.61
2022-10-05T22:04:19.013Z,81.92
2022-10-05T22:06:53.970Z,81.71
2022-10-05T22:09:20.498Z,81.62
2022-10-05T22:11:48.674Z,81.92
2022-10-05T22:14:15.825Z,81.66
2022-10-05T22:16:45.500Z,81.63
2022-10-05T22:19:19.158Z,81.78
2022-10-05T22:21:52.298Z,82.08
2022-10-05T22:24:22.760Z,82.03
2022-10-05T22:26:50.976Z,82.45
2022-10-05T22:29:18.351Z,82.30
2022-10-05T22:31:48.097Z,82.51
2022-10-05T22:34:16.005Z,82.56
2022-10-05T22:36:42.752Z,82.53
2022-10-05T22:39:09.255Z,82.17
2022-10-05T22:41:35.767Z,82.50
2022-10-05T22:44:02.300Z,82.29
2022-10-05T22:46:28.895Z,82.33
2022-10-05T22:48:55.382Z,82.58
2022-10-05T22:51:21.902Z,82.67
2022-10-05T22:53:48.596Z,82.66
2022-10-05T22:56:15.882Z,82.63
2022-10-05T22:58:46.310Z,82.48
2022-10-05T23:01:16.182Z,82.62
2022-10-05T23:03:43.619Z,82.55
2022-10-05T23:06:13.488Z,82.83
2022-10-05T23:08:46.939Z,82.78
2022-10-05T23:11:20.066Z,82.45
2022-10-05T23:13:51.669Z,82.70
2022-10-05T23:16:20.685Z,82.84
2022-10-05T23:18:49.246Z,82.65
2022-10-05T23:21:17.515Z,82.60
2022-10-05T23:23:46.867Z,82.88
2022-10-05T23:26:13.478Z,83.02
2022-10-05T23:28:45.908Z,82.55
2022-10-05T23:31:18.623Z,82.86
2022-10-05T23:33:45.610Z,82.94
2022-10-05T23:36:24.189Z,82.98
2022-10-05T23:38:51.127Z,83.05
2022-10-05T23:41:19.387Z,82.85
2022-10-05T23:43:49.232Z,83.01
2022-10-05T23:46:17.289Z,83.15
2022-10-05T23:48:43.882Z,83.13
2022-10-05T23:51:13.235Z,83.15
2022-10-05T23:53:39.782Z,83.21
2022-10-05T23:56:06.648Z,83.21
2022-10-05T23:58:35.886Z,83.33
